METAR Data
IDs: Format: Raw Decoded Include TAF

Data at: 0039 UTC 01 Mar 2021

LRTM 010030Z AUTO 19001KT 9999 BKN070/// BKN110/// 03/M01 Q1027